This is the latest recevied weather packets stored in our database for station/object LZ2SMX-2. If no packets are shown the sender has not sent any weather packets the latest 10 day(s).
| Time | Temp. | Humidity | Pressure | Rain* | Wind** | Luminosity | Snow |
|---|---|---|---|---|---|---|---|
| 1777902789 | 16.67° C | 49% | 988 hPa | 0 mm | - | - | - |
| 1777901589 | 15.56° C | 48% | 989 hPa | 0 mm | - | - | - |
| 1777900390 | 16.67° C | 48% | 989 hPa | 0 mm | - | - | - |
| 1777897989 | 17.78° C | 43% | 989 hPa | 0 mm | - | - | - |
| 1777896789 | 17.78° C | 44% | 989 hPa | 0 mm | - | - | - |
| 1777895589 | 17.78° C | 44% | 989 hPa | 0 mm | - | - | - |
| 1777893189 | 15.56° C | 46% | 989 hPa | 0 mm | - | - | - |
| 1777890789 | 16.67° C | 46% | 989 hPa | 0 mm | - | - | - |
| 1777889589 | 16.67° C | 49% | 989 hPa | 0 mm | - | - | - |
| 1777888389 | 15.56° C | 52% | 989 hPa | 0 mm | - | - | - |
| 1777887189 | 15.56° C | 49% | 989 hPa | 0 mm | - | - | - |
| 1777885990 | 15.56° C | 50% | 989 hPa | 0 mm | - | - | - |
| 1777884789 | 15.56° C | 49% | 989 hPa | 0 mm | - | - | - |
| 1777883589 | 15.56° C | 52% | 990 hPa | 0 mm | - | - | - |
| 1777882389 | 15° C | 52% | 990 hPa | 0 mm | - | - | - |
| 1777881189 | 13.89° C | 56% | 989 hPa | 0 mm | - | - | - |
| 1777879990 | 13.89° C | 56% | 989 hPa | 0 mm | - | - | - |
| 1777878789 | 12.78° C | 59% | 990 hPa | 0 mm | - | - | - |
| 1777877589 | 11.67° C | 60% | 990 hPa | 0 mm | - | - | - |
| 1777876389 | 11.67° C | 62% | 990 hPa | 0 mm | - | - | - |
| 1777875190 | 10° C | 65% | 990 hPa | 0 mm | - | - | - |
| 1777873990 | 8.89° C | 66% | 990 hPa | 0 mm | - | - | - |
| 1777872790 | 8.89° C | 67% | 991 hPa | 0 mm | - | - | - |
| 1777871589 | 7.78° C | 68% | 990 hPa | 0 mm | - | - | - |
| 1777870389 | 7.78° C | 69% | 990 hPa | 0 mm | - | - | - |
* Rain latest hour (hover to see other rain measurements)
** Current wind speed in m/s (hover to see current wind gust speed)